Gale — WDG9578 — position and weather

sailwx.info

Track history (hours):
 
Tides and Currents Weather Stations Pressure Air Temp Water Temp Dewpoint Dewpoint Depression Visibility Wind Speed Wind Dir Waves Ship Positions

Gale

Owner: Vane Line Bunkering INC, Philadelphia, PA. More information available from US FCC via Universal Licensing System and Coast Guard Vessel Documentation Center.

Last reported at 2018-Jun-21 23:30 UTC. Time now 2018-Jun-21 23:51 UTC.
Position N 32°08' W 080°52'.

Length 20 m; draft 3 m.

Type: Tug. MMSI: 367589210.

Date/timePositionNaut miles runAvg speedWind from/ knotsBaromVisibWave heightAir tempDewpointWater temp
2018-Jun-21 23:30N 32°08' W 080°52'3 5.6
2018-Jun-21 23:00N 32°09' W 080°49'4 7.8
2018-Jun-21 22:30N 32°13' W 080°47'16 1.6
2018-Jun-21 12:35N 32°28' W 080°41'0 0.0
2018-Jun-21 12:28N 32°28' W 080°41'0 0.0
2018-Jun-21 12:00N 32°28' W 080°41'0 0.0
2018-Jun-21 11:30N 32°28' W 080°41'0 0.0
2018-Jun-21 11:00N 32°28' W 080°41'0 0.0
2018-Jun-21 10:28N 32°28' W 080°41'0 0.0
2018-Jun-21 10:00N 32°28' W 080°41'0 0.0
2018-Jun-21 09:30N 32°28' W 080°41'0 0.0
2018-Jun-21 08:59N 32°28' W 080°41'0 0.0
2018-Jun-21 06:50N 32°28' W 080°41'0 0.0
2018-Jun-21 06:30N 32°28' W 080°41'0 0.0
2018-Jun-21 05:32N 32°28' W 080°41'0 0.0
2018-Jun-21 03:06N 32°28' W 080°41'12 2.5
2018-Jun-20 22:31N 32°16' W 080°40'1 7.8
2018-Jun-20 22:24N 32°16' W 080°41'3 7.7
2018-Jun-20 21:59N 32°16' W 080°45'3 5.6
2018-Jun-20 21:28N 32°13' W 080°47'3 6.0
2018-Jun-20 21:00N 32°11' W 080°48'3 6.3
2018-Jun-20 20:29N 32°09' W 080°51'3 6.2
2018-Jun-20 19:59N 32°07' W 080°54'2 4.6
2018-Jun-20 19:30N 32°05' W 080°56'3 6.0
2018-Jun-20 19:00N 32°05' W 080°59'1 1.5
2018-Jun-20 18:30N 32°04' W 080°58'3 5.0
2018-Jun-20 18:00N 32°04' W 081°01'3 5.2
2018-Jun-20 17:30N 32°02' W 081°03'2 5.0
2018-Jun-20 17:00N 31°60' W 081°01'2 4.4
2018-Jun-20 16:30N 31°59' W 081°03'2 4.9
2018-Jun-20 16:00N 31°57' W 081°05'2 4.4
2018-Jun-20 15:30N 31°55' W 081°06'3 6.1
2018-Jun-20 14:59N 31°52' W 081°05'2 4.4
2018-Jun-20 14:30N 31°51' W 081°07'  
2018-Jun-17 19:42N 31°44' W 081°09'2 9.3
2018-Jun-17 19:28N 31°46' W 081°10'3 6.8
2018-Jun-17 19:00N 31°49' W 081°11'3 5.9
2018-Jun-17 18:30N 31°51' W 081°08'3 5.5
2018-Jun-17 17:59N 31°51' W 081°05'4 7.7
2018-Jun-17 17:29N 31°55' W 081°06'3 5.4
2018-Jun-17 17:00N 31°57' W 081°04'3 5.1
2018-Jun-17 16:30N 31°59' W 081°02'2 4.7
2018-Jun-17 16:00N 32°01' W 081°02'3 5.2
2018-Jun-17 15:30N 32°04' W 081°02'3 5.4
2018-Jun-17 15:00N 32°05' W 080°59'3 5.3
2018-Jun-17 14:30N 32°05' W 081°02'4 7.1
2018-Jun-17 14:00N 32°05' W 081°06'1 1.3
2018-Jun-17 13:30N 32°06' W 081°06'2 3.2
2018-Jun-17 13:00N 32°07' W 081°08'0 0.0
2018-Jun-17 12:30N 32°07' W 081°08'0 0.0
2018-Jun-17 12:00N 32°07' W 081°08'0 0.0
2018-Jun-17 11:30N 32°07' W 081°08'0 0.0
2018-Jun-17 11:00N 32°07' W 081°08'0 0.0
2018-Jun-17 10:30N 32°07' W 081°08'0 0.0
2018-Jun-17 10:00N 32°07' W 081°08'0 0.0
2018-Jun-17 09:30N 32°07' W 081°08'0 0.0
2018-Jun-17 09:00N 32°07' W 081°08'0 0.0
2018-Jun-17 08:29N 32°07' W 081°08'0 0.0
2018-Jun-17 08:00N 32°07' W 081°08'0 0.0
2018-Jun-17 07:30N 32°07' W 081°08'0 0.0
2018-Jun-17 07:00N 32°07' W 081°08'0 0.0
2018-Jun-17 06:30N 32°07' W 081°08'0 0.0
2018-Jun-17 06:00N 32°07' W 081°08'0 0.0
2018-Jun-17 05:30N 32°07' W 081°08'0 0.0
2018-Jun-17 04:59N 32°07' W 081°08'0 0.0
2018-Jun-17 04:30N 32°07' W 081°08'0 0.0
2018-Jun-17 04:00N 32°07' W 081°08'0 0.0
2018-Jun-17 03:29N 32°07' W 081°08'0 0.0
2018-Jun-17 03:00N 32°07' W 081°08'0 0.0
2018-Jun-17 02:30N 32°07' W 081°08'0 0.0
2018-Jun-17 02:00N 32°07' W 081°08'0 0.0
2018-Jun-17 01:30N 32°07' W 081°08'0 0.0
2018-Jun-17 01:00N 32°07' W 081°08'0 0.0
2018-Jun-17 00:29N 32°07' W 081°08'0 0.0
2018-Jun-17 00:00N 32°07' W 081°08'0 0.0
2018-Jun-16 23:30N 32°07' W 081°08'0 0.0
2018-Jun-16 23:00N 32°07' W 081°08'0 0.0
2018-Jun-16 22:30N 32°07' W 081°08'0 0.0
2018-Jun-16 22:00N 32°07' W 081°08'0 0.0
2018-Jun-16 21:30N 32°07' W 081°08'0 0.0
2018-Jun-16 20:58N 32°07' W 081°08'0 0.0
2018-Jun-16 20:30N 32°07' W 081°08'0 0.0
2018-Jun-16 19:59N 32°07' W 081°08'0 0.0
2018-Jun-16 19:30N 32°07' W 081°08'0 0.0
2018-Jun-16 19:00N 32°07' W 081°08'0 0.0
2018-Jun-16 18:27N 32°07' W 081°08'0 0.0
2018-Jun-16 18:00N 32°07' W 081°08'0 0.0
2018-Jun-16 17:30N 32°07' W 081°08'0 0.0
2018-Jun-16 17:00N 32°07' W 081°08'0 0.0
2018-Jun-16 16:30N 32°07' W 081°08'0 0.0
2018-Jun-16 16:00N 32°07' W 081°08'0 0.0
2018-Jun-16 15:30N 32°07' W 081°08'0 0.0
2018-Jun-16 15:00N 32°07' W 081°08'0 0.0
2018-Jun-16 14:30N 32°07' W 081°08'0 0.0
2018-Jun-16 14:00N 32°07' W 081°08'0 0.0
2018-Jun-16 13:30N 32°07' W 081°08'0 0.0
2018-Jun-16 12:59N 32°07' W 081°08'0 0.0
2018-Jun-16 12:29N 32°07' W 081°08'0 0.0
2018-Jun-16 12:00N 32°07' W 081°08'0 0.0
2018-Jun-16 11:30N 32°07' W 081°08'0 0.0
2018-Jun-16 10:59N 32°07' W 081°08'0 0.0
2018-Jun-16 10:30N 32°07' W 081°08'0 0.0
2018-Jun-16 10:00N 32°07' W 081°08'0 0.0
2018-Jun-16 09:29N 32°07' W 081°08'0 0.0
2018-Jun-16 09:00N 32°07' W 081°08'0 0.0
2018-Jun-16 08:27N 32°07' W 081°08'0 0.0
2018-Jun-16 07:59N 32°07' W 081°08'0 0.0
2018-Jun-16 07:28N 32°07' W 081°08'0 0.0
2018-Jun-16 07:01N 32°07' W 081°08'0 0.0
2018-Jun-16 06:27N 32°07' W 081°08'0 0.0
2018-Jun-16 06:00N 32°07' W 081°08'0 0.0
2018-Jun-16 05:30N 32°07' W 081°08'0 0.0
2018-Jun-16 05:00N 32°07' W 081°08'0 0.0
2018-Jun-16 04:29N 32°07' W 081°08'0 0.0
2018-Jun-16 04:01N 32°07' W 081°08'0 0.0
2018-Jun-16 03:30N 32°07' W 081°08'0 0.0
2018-Jun-16 03:00N 32°07' W 081°08'0 0.0
2018-Jun-16 02:30N 32°07' W 081°08'0 0.0
2018-Jun-16 02:00N 32°07' W 081°08'0 0.0
2018-Jun-16 01:29N 32°07' W 081°08'0 0.0
2018-Jun-16 01:00N 32°07' W 081°08'0 0.0
2018-Jun-16 00:30N 32°07' W 081°08'0 0.0
2018-Jun-16 00:00N 32°07' W 081°08'0 0.0
2018-Jun-15 23:30N 32°07' W 081°08'0 0.0
2018-Jun-15 23:00N 32°07' W 081°08'0 0.0
2018-Jun-15 22:30N 32°07' W 081°08'0 0.0
2018-Jun-15 22:00N 32°07' W 081°08'0 0.0
2018-Jun-15 21:30N 32°07' W 081°08'0 0.0
2018-Jun-15 20:59N 32°07' W 081°08'0 0.0
2018-Jun-15 20:30N 32°07' W 081°08'0 0.0
2018-Jun-15 20:00N 32°07' W 081°08'0 0.0
2018-Jun-15 19:30N 32°07' W 081°08'0 0.0
2018-Jun-15 19:00N 32°07' W 081°08'0 0.0
2018-Jun-15 18:30N 32°07' W 081°08'0 0.0
2018-Jun-15 18:00N 32°07' W 081°08'0 0.0
2018-Jun-15 17:27N 32°07' W 081°08'0 0.0
2018-Jun-15 17:00N 32°07' W 081°08'0 0.0
2018-Jun-15 16:29N 32°07' W 081°08'0 0.0
2018-Jun-15 16:01N 32°07' W 081°08'0 0.0
2018-Jun-15 15:30N 32°07' W 081°08'0 0.0
2018-Jun-15 15:00N 32°07' W 081°08'0 0.0
2018-Jun-15 14:30N 32°07' W 081°08'0 0.0
2018-Jun-15 14:00N 32°07' W 081°08'0 0.0
2018-Jun-15 13:30N 32°07' W 081°08'0 0.0
2018-Jun-15 13:00N 32°07' W 081°08'0 0.0
2018-Jun-15 12:30N 32°07' W 081°08'0 0.0
2018-Jun-15 12:00N 32°07' W 081°08'0 0.0
2018-Jun-15 11:30N 32°07' W 081°08'0 0.0
2018-Jun-15 11:00N 32°07' W 081°08'0 0.0
2018-Jun-15 10:30N 32°07' W 081°08'0 0.0
2018-Jun-15 10:00N 32°07' W 081°08'0 0.0
2018-Jun-15 09:31N 32°07' W 081°08'0 0.0
2018-Jun-15 09:01N 32°07' W 081°08'0 0.0
2018-Jun-15 08:30N 32°07' W 081°08'0 0.0
2018-Jun-15 08:01N 32°07' W 081°08'0 0.0
2018-Jun-15 07:26N 32°07' W 081°08'0 0.0
2018-Jun-15 07:00N 32°07' W 081°08'0 0.0
2018-Jun-15 06:28N 32°07' W 081°08'0 0.0
2018-Jun-15 06:00N 32°07' W 081°08'0 0.0
2018-Jun-15 05:30N 32°07' W 081°08'0 0.0
2018-Jun-15 05:00N 32°07' W 081°08'0 0.0
2018-Jun-15 04:29N 32°07' W 081°08'0 0.0
2018-Jun-15 03:59N 32°07' W 081°08'0 0.0
2018-Jun-15 03:30N 32°07' W 081°08'0 0.0
2018-Jun-15 03:00N 32°07' W 081°08'0 0.0
2018-Jun-15 02:29N 32°07' W 081°08'0 0.0
2018-Jun-15 02:00N 32°07' W 081°08'0 0.0
2018-Jun-15 01:30N 32°07' W 081°08'0 0.0
2018-Jun-15 01:00N 32°07' W 081°08'0 0.0
2018-Jun-15 00:30N 32°07' W 081°08'0 0.0
2018-Jun-15 00:00N 32°07' W 081°08'0 0.0
2018-Jun-14 23:30N 32°07' W 081°08'0 0.0
2018-Jun-14 23:00N 32°07' W 081°08'0 0.0
2018-Jun-14 22:30N 32°07' W 081°08'0 0.0
2018-Jun-14 22:00N 32°07' W 081°08'0 0.0
2018-Jun-14 21:28N 32°07' W 081°08'0 0.0
2018-Jun-14 21:00N 32°07' W 081°08'0 0.0
2018-Jun-14 20:30N 32°07' W 081°08'0 0.0
2018-Jun-14 20:00N 32°07' W 081°08'0 0.0
2018-Jun-14 19:29N 32°07' W 081°08'0 0.0
2018-Jun-14 19:00N 32°07' W 081°08'0 0.0
2018-Jun-14 18:30N 32°07' W 081°08'0 0.0
2018-Jun-14 18:00N 32°07' W 081°08'0 0.0
2018-Jun-14 17:30N 32°07' W 081°08'0 0.0
2018-Jun-14 17:00N 32°07' W 081°08'0 0.0
2018-Jun-14 16:30N 32°07' W 081°08'0 0.0
2018-Jun-14 16:00N 32°07' W 081°08'0 0.0
2018-Jun-14 15:31N 32°07' W 081°08'0 0.0
2018-Jun-14 15:00N 32°07' W 081°08'0 0.0
2018-Jun-14 14:31N 32°07' W 081°08'0 0.0
2018-Jun-14 14:01N 32°07' W 081°08'0 0.0
2018-Jun-14 13:30N 32°07' W 081°08'0 0.0
2018-Jun-14 13:00N 32°07' W 081°08'0 0.0
2018-Jun-14 12:31N 32°07' W 081°08'0 0.0
2018-Jun-14 12:01N 32°07' W 081°08'0 0.0
2018-Jun-14 11:31N 32°07' W 081°08'0 0.0
2018-Jun-14 11:00N 32°07' W 081°08'0 0.0
2018-Jun-14 10:30N 32°07' W 081°08'0 0.0
2018-Jun-14 10:00N 32°07' W 081°08'0 0.0
2018-Jun-14 09:31N 32°07' W 081°08'0 0.0
2018-Jun-14 09:00N 32°07' W 081°08'0 0.0
2018-Jun-14 08:31N 32°07' W 081°08'0 0.0
2018-Jun-14 08:01N 32°07' W 081°08'0 0.0
2018-Jun-14 07:30N 32°07' W 081°08'0 0.0
2018-Jun-14 07:00N 32°07' W 081°08'0 0.0
2018-Jun-14 06:30N 32°07' W 081°08'0 0.0
2018-Jun-14 05:58N 32°07' W 081°08'0 0.0
2018-Jun-14 05:30N 32°07' W 081°08'0 0.0
2018-Jun-14 05:00N 32°07' W 081°08'0 0.0
2018-Jun-14 04:30N 32°07' W 081°08'0 0.0
2018-Jun-14 04:01N 32°07' W 081°08'0 0.0
2018-Jun-14 03:30N 32°07' W 081°08'0 0.0
2018-Jun-14 03:01N 32°07' W 081°08'0 0.0
2018-Jun-14 02:31N 32°07' W 081°08'0 0.0
2018-Jun-14 02:01N 32°07' W 081°08'0 0.0
2018-Jun-14 01:31N 32°07' W 081°08'0 0.0
2018-Jun-14 01:00N 32°07' W 081°08'0 0.0
2018-Jun-14 00:30N 32°07' W 081°08'0 0.0
2018-Jun-14 00:00N 32°07' W 081°08'0 0.0
2018-Jun-13 23:30N 32°07' W 081°08'0 0.0
2018-Jun-13 23:00N 32°07' W 081°08'0 0.0
2018-Jun-13 22:31N 32°07' W 081°08'0 0.0
2018-Jun-13 22:00N 32°07' W 081°08'0 0.0
2018-Jun-13 21:31N 32°07' W 081°08'0 0.0
2018-Jun-13 21:00N 32°07' W 081°08'0 0.0
2018-Jun-13 19:26N 32°07' W 081°08'0 0.0
2018-Jun-13 19:01N 32°07' W 081°08'0 0.0
2018-Jun-13 18:30N 32°07' W 081°08'0 0.0
2018-Jun-13 18:01N 32°07' W 081°08'0 0.0
2018-Jun-13 17:30N 32°07' W 081°08'0 0.0
2018-Jun-13 17:00N 32°07' W 081°08'0 0.0
2018-Jun-13 16:30N 32°07' W 081°08'0 0.0
2018-Jun-13 16:01N 32°07' W 081°08'0 0.0
2018-Jun-13 15:30N 32°07' W 081°08'0 0.0
2018-Jun-13 15:00N 32°07' W 081°08'0 0.7
2018-Jun-13 14:30N 32°07' W 081°07'0 0.0
2018-Jun-13 14:00N 32°07' W 081°07'0 0.0
2018-Jun-13 13:30N 32°07' W 081°07'1 1.2
2018-Jun-13 13:00N 32°07' W 081°08'1 1.7
2018-Jun-13 12:30N 32°08' W 081°08'0 0.0
2018-Jun-13 12:00N 32°08' W 081°08'0 0.0
2018-Jun-13 11:30N 32°08' W 081°08'0 0.0
2018-Jun-13 11:00N 32°08' W 081°08'0 0.0
2018-Jun-13 10:30N 32°08' W 081°08'0 0.0
2018-Jun-13 10:00N 32°08' W 081°08'0 0.0
2018-Jun-13 09:30N 32°08' W 081°08'0 0.0
2018-Jun-13 09:00N 32°08' W 081°08'0 0.0
2018-Jun-13 08:30N 32°08' W 081°08'0 0.0
2018-Jun-13 08:00N 32°08' W 081°08'0 0.0
2018-Jun-13 07:30N 32°08' W 081°08'0 0.0
2018-Jun-13 07:00N 32°08' W 081°08'0 0.0
2018-Jun-13 06:30N 32°08' W 081°08'0 0.0
2018-Jun-13 06:00N 32°08' W 081°08'0 0.0
2018-Jun-13 05:30N 32°08' W 081°08'0 0.0
2018-Jun-13 05:00N 32°08' W 081°08'0 0.0
2018-Jun-13 04:30N 32°08' W 081°08'0 0.0
2018-Jun-13 04:00N 32°08' W 081°08'0 0.0
2018-Jun-13 03:30N 32°08' W 081°08'0 0.0
2018-Jun-13 03:00N 32°08' W 081°08'0 0.6
2018-Jun-13 02:30N 32°08' W 081°08'1 2.3
2018-Jun-13 02:00N 32°07' W 081°07'0 0.0
2018-Jun-13 01:30N 32°07' W 081°07'0 0.0
2018-Jun-13 01:00N 32°07' W 081°07'0 0.0
2018-Jun-13 00:30N 32°07' W 081°07'0 0.0
2018-Jun-13 00:00N 32°07' W 081°07'0 0.0
2018-Jun-12 23:30N 32°07' W 081°07'0 0.0
2018-Jun-12 23:00N 32°07' W 081°07'0 0.0
2018-Jun-12 22:30N 32°07' W 081°07'0 0.0
2018-Jun-12 22:00N 32°07' W 081°07'0 0.7
2018-Jun-12 21:30N 32°07' W 081°08'0 0.7
2018-Jun-12 21:00N 32°07' W 081°07'0 0.0
2018-Jun-12 20:30N 32°07' W 081°07'0 0.0
2018-Jun-12 20:00N 32°07' W 081°07'0 0.0
2018-Jun-12 19:30N 32°07' W 081°07'0 0.0
2018-Jun-12 19:00N 32°07' W 081°07'0 0.0
2018-Jun-12 18:30N 32°07' W 081°07'0 0.0
2018-Jun-12 18:00N 32°07' W 081°07'0 0.0
2018-Jun-12 17:30N 32°07' W 081°07'0 0.0
2018-Jun-12 17:00N 32°07' W 081°07'0 0.0
2018-Jun-12 16:30N 32°07' W 081°07'0 0.0
2018-Jun-12 16:00N 32°07' W 081°07'0 0.0
2018-Jun-12 15:30N 32°07' W 081°07'0 0.0
2018-Jun-12 15:00N 32°07' W 081°07'0 0.0
2018-Jun-12 14:30N 32°07' W 081°07'0 0.0
2018-Jun-12 14:00N 32°07' W 081°07'0 0.0
2018-Jun-12 13:30N 32°07' W 081°07'0 0.0
2018-Jun-12 13:00N 32°07' W 081°07'0 0.0
2018-Jun-12 12:30N 32°07' W 081°07'0 0.0
2018-Jun-12 12:00N 32°07' W 081°07'0 0.0
2018-Jun-12 11:30N 32°07' W 081°07'0 0.0
2018-Jun-12 11:00N 32°07' W 081°07'0 1.0
2018-Jun-12 10:30N 32°07' W 081°08'0 0.1
2018-Jun-12 10:00N 32°07' W 081°08'0 0.0
2018-Jun-12 09:29N 32°07' W 081°08'0 0.0
2018-Jun-12 09:00N 32°07' W 081°08'0 0.0
2018-Jun-12 08:30N 32°07' W 081°08'0 0.0
2018-Jun-12 07:59N 32°07' W 081°08'0 0.0
2018-Jun-12 07:30N 32°07' W 081°08'0 0.0
2018-Jun-12 07:00N 32°07' W 081°08'0 0.0
2018-Jun-12 06:30N 32°07' W 081°08'0 0.0
2018-Jun-12 05:58N 32°07' W 081°08'0 0.0
2018-Jun-12 05:30N 32°07' W 081°08'0 0.0
2018-Jun-12 05:00N 32°07' W 081°08'0 0.0
2018-Jun-12 04:30N 32°07' W 081°08'0 0.0
2018-Jun-12 04:00N 32°07' W 081°08'0 0.0
2018-Jun-12 03:30N 32°07' W 081°08'0 0.9
2018-Jun-12 03:00N 32°07' W 081°08'0 0.2
2018-Jun-12 02:30N 32°07' W 081°07'0 0.0
2018-Jun-12 02:00N 32°07' W 081°07'0 0.0
2018-Jun-12 01:30N 32°07' W 081°07'0 0.0
2018-Jun-12 01:00N 32°07' W 081°07'0 0.0
2018-Jun-12 00:30N 32°07' W 081°07'0 0.0
2018-Jun-12 00:00N 32°07' W 081°07'0 0.0
2018-Jun-11 23:30N 32°07' W 081°07'  
Track history (hours):
 
Tides and Currents Weather Stations Pressure Air Temp Water Temp Dewpoint Dewpoint Depression Visibility Wind Speed Wind Dir Waves Ship Positions

Gale

Owner: Vane Line Bunkering INC, Philadelphia, PA. More information available from US FCC via Universal Licensing System and Coast Guard Vessel Documentation Center.

Last reported at 2018-Jun-21 23:30 UTC. Time now 2018-Jun-21 23:51 UTC.
Position N 32°08' W 080°52'.

Length 20 m; draft 3 m.

Type: Tug. MMSI: 367589210.

Date/timePositionNaut miles runAvg speedWind from/ knotsBaromVisibWave heightAir tempDewpointWater temp
2018-Jun-21 23:30N 32°08' W 080°52'3 5.6
2018-Jun-21 23:00N 32°09' W 080°49'4 7.8
2018-Jun-21 22:30N 32°13' W 080°47'16 1.6
2018-Jun-21 12:35N 32°28' W 080°41'0 0.0
2018-Jun-21 12:28N 32°28' W 080°41'0 0.0
2018-Jun-21 12:00N 32°28' W 080°41'0 0.0
2018-Jun-21 11:30N 32°28' W 080°41'0 0.0
2018-Jun-21 11:00N 32°28' W 080°41'0 0.0
2018-Jun-21 10:28N 32°28' W 080°41'0 0.0
2018-Jun-21 10:00N 32°28' W 080°41'0 0.0
2018-Jun-21 09:30N 32°28' W 080°41'0 0.0
2018-Jun-21 08:59N 32°28' W 080°41'0 0.0
2018-Jun-21 06:50N 32°28' W 080°41'0 0.0
2018-Jun-21 06:30N 32°28' W 080°41'0 0.0
2018-Jun-21 05:32N 32°28' W 080°41'0 0.0
2018-Jun-21 03:06N 32°28' W 080°41'12 2.5
2018-Jun-20 22:31N 32°16' W 080°40'1 7.8
2018-Jun-20 22:24N 32°16' W 080°41'3 7.7
2018-Jun-20 21:59N 32°16' W 080°45'3 5.6
2018-Jun-20 21:28N 32°13' W 080°47'3 6.0
2018-Jun-20 21:00N 32°11' W 080°48'3 6.3
2018-Jun-20 20:29N 32°09' W 080°51'3 6.2
2018-Jun-20 19:59N 32°07' W 080°54'2 4.6
2018-Jun-20 19:30N 32°05' W 080°56'3 6.0
2018-Jun-20 19:00N 32°05' W 080°59'1 1.5
2018-Jun-20 18:30N 32°04' W 080°58'3 5.0
2018-Jun-20 18:00N 32°04' W 081°01'3 5.2
2018-Jun-20 17:30N 32°02' W 081°03'2 5.0
2018-Jun-20 17:00N 31°60' W 081°01'2 4.4
2018-Jun-20 16:30N 31°59' W 081°03'2 4.9
2018-Jun-20 16:00N 31°57' W 081°05'2 4.4
2018-Jun-20 15:30N 31°55' W 081°06'3 6.1
2018-Jun-20 14:59N 31°52' W 081°05'2 4.4
2018-Jun-20 14:30N 31°51' W 081°07'  
2018-Jun-17 19:42N 31°44' W 081°09'2 9.3
2018-Jun-17 19:28N 31°46' W 081°10'3 6.8
2018-Jun-17 19:00N 31°49' W 081°11'3 5.9
2018-Jun-17 18:30N 31°51' W 081°08'3 5.5
2018-Jun-17 17:59N 31°51' W 081°05'4 7.7
2018-Jun-17 17:29N 31°55' W 081°06'3 5.4
2018-Jun-17 17:00N 31°57' W 081°04'3 5.1
2018-Jun-17 16:30N 31°59' W 081°02'2 4.7
2018-Jun-17 16:00N 32°01' W 081°02'3 5.2
2018-Jun-17 15:30N 32°04' W 081°02'3 5.4
2018-Jun-17 15:00N 32°05' W 080°59'3 5.3
2018-Jun-17 14:30N 32°05' W 081°02'4 7.1
2018-Jun-17 14:00N 32°05' W 081°06'1 1.3
2018-Jun-17 13:30N 32°06' W 081°06'2 3.2
2018-Jun-17 13:00N 32°07' W 081°08'0 0.0
2018-Jun-17 12:30N 32°07' W 081°08'0 0.0
2018-Jun-17 12:00N 32°07' W 081°08'0 0.0
2018-Jun-17 11:30N 32°07' W 081°08'0 0.0
2018-Jun-17 11:00N 32°07' W 081°08'0 0.0
2018-Jun-17 10:30N 32°07' W 081°08'0 0.0
2018-Jun-17 10:00N 32°07' W 081°08'0 0.0
2018-Jun-17 09:30N 32°07' W 081°08'0 0.0
2018-Jun-17 09:00N 32°07' W 081°08'0 0.0
2018-Jun-17 08:29N 32°07' W 081°08'0 0.0
2018-Jun-17 08:00N 32°07' W 081°08'0 0.0
2018-Jun-17 07:30N 32°07' W 081°08'0 0.0
2018-Jun-17 07:00N 32°07' W 081°08'0 0.0
2018-Jun-17 06:30N 32°07' W 081°08'0 0.0
2018-Jun-17 06:00N 32°07' W 081°08'0 0.0
2018-Jun-17 05:30N 32°07' W 081°08'0 0.0
2018-Jun-17 04:59N 32°07' W 081°08'0 0.0
2018-Jun-17 04:30N 32°07' W 081°08'0 0.0
2018-Jun-17 04:00N 32°07' W 081°08'0 0.0
2018-Jun-17 03:29N 32°07' W 081°08'0 0.0
2018-Jun-17 03:00N 32°07' W 081°08'0 0.0
2018-Jun-17 02:30N 32°07' W 081°08'0 0.0
2018-Jun-17 02:00N 32°07' W 081°08'0 0.0
2018-Jun-17 01:30N 32°07' W 081°08'0 0.0
2018-Jun-17 01:00N 32°07' W 081°08'0 0.0
2018-Jun-17 00:29N 32°07' W 081°08'0 0.0
2018-Jun-17 00:00N 32°07' W 081°08'0 0.0
2018-Jun-16 23:30N 32°07' W 081°08'0 0.0
2018-Jun-16 23:00N 32°07' W 081°08'0 0.0
2018-Jun-16 22:30N 32°07' W 081°08'0 0.0
2018-Jun-16 22:00N 32°07' W 081°08'0 0.0
2018-Jun-16 21:30N 32°07' W 081°08'0 0.0
2018-Jun-16 20:58N 32°07' W 081°08'0 0.0
2018-Jun-16 20:30N 32°07' W 081°08'0 0.0
2018-Jun-16 19:59N 32°07' W 081°08'0 0.0
2018-Jun-16 19:30N 32°07' W 081°08'0 0.0
2018-Jun-16 19:00N 32°07' W 081°08'0 0.0
2018-Jun-16 18:27N 32°07' W 081°08'0 0.0
2018-Jun-16 18:00N 32°07' W 081°08'0 0.0
2018-Jun-16 17:30N 32°07' W 081°08'0 0.0
2018-Jun-16 17:00N 32°07' W 081°08'0 0.0
2018-Jun-16 16:30N 32°07' W 081°08'0 0.0
2018-Jun-16 16:00N 32°07' W 081°08'0 0.0
2018-Jun-16 15:30N 32°07' W 081°08'0 0.0
2018-Jun-16 15:00N 32°07' W 081°08'0 0.0
2018-Jun-16 14:30N 32°07' W 081°08'0 0.0
2018-Jun-16 14:00N 32°07' W 081°08'0 0.0
2018-Jun-16 13:30N 32°07' W 081°08'0 0.0
2018-Jun-16 12:59N 32°07' W 081°08'0 0.0
2018-Jun-16 12:29N 32°07' W 081°08'0 0.0
2018-Jun-16 12:00N 32°07' W 081°08'0 0.0
2018-Jun-16 11:30N 32°07' W 081°08'0 0.0
2018-Jun-16 10:59N 32°07' W 081°08'0 0.0
2018-Jun-16 10:30N 32°07' W 081°08'0 0.0
2018-Jun-16 10:00N 32°07' W 081°08'0 0.0
2018-Jun-16 09:29N 32°07' W 081°08'0 0.0
2018-Jun-16 09:00N 32°07' W 081°08'0 0.0
2018-Jun-16 08:27N 32°07' W 081°08'0 0.0
2018-Jun-16 07:59N 32°07' W 081°08'0 0.0
2018-Jun-16 07:28N 32°07' W 081°08'0 0.0
2018-Jun-16 07:01N 32°07' W 081°08'0 0.0
2018-Jun-16 06:27N 32°07' W 081°08'0 0.0
2018-Jun-16 06:00N 32°07' W 081°08'0 0.0
2018-Jun-16 05:30N 32°07' W 081°08'0 0.0
2018-Jun-16 05:00N 32°07' W 081°08'0 0.0
2018-Jun-16 04:29N 32°07' W 081°08'0 0.0
2018-Jun-16 04:01N 32°07' W 081°08'0 0.0
2018-Jun-16 03:30N 32°07' W 081°08'0 0.0
2018-Jun-16 03:00N 32°07' W 081°08'0 0.0
2018-Jun-16 02:30N 32°07' W 081°08'0 0.0
2018-Jun-16 02:00N 32°07' W 081°08'0 0.0
2018-Jun-16 01:29N 32°07' W 081°08'0 0.0
2018-Jun-16 01:00N 32°07' W 081°08'0 0.0
2018-Jun-16 00:30N 32°07' W 081°08'0 0.0
2018-Jun-16 00:00N 32°07' W 081°08'0 0.0
2018-Jun-15 23:30N 32°07' W 081°08'0 0.0
2018-Jun-15 23:00N 32°07' W 081°08'0 0.0
2018-Jun-15 22:30N 32°07' W 081°08'0 0.0
2018-Jun-15 22:00N 32°07' W 081°08'0 0.0
2018-Jun-15 21:30N 32°07' W 081°08'0 0.0
2018-Jun-15 20:59N 32°07' W 081°08'0 0.0
2018-Jun-15 20:30N 32°07' W 081°08'0 0.0
2018-Jun-15 20:00N 32°07' W 081°08'0 0.0
2018-Jun-15 19:30N 32°07' W 081°08'0 0.0
2018-Jun-15 19:00N 32°07' W 081°08'0 0.0
2018-Jun-15 18:30N 32°07' W 081°08'0 0.0
2018-Jun-15 18:00N 32°07' W 081°08'0 0.0
2018-Jun-15 17:27N 32°07' W 081°08'0 0.0
2018-Jun-15 17:00N 32°07' W 081°08'0 0.0
2018-Jun-15 16:29N 32°07' W 081°08'0 0.0
2018-Jun-15 16:01N 32°07' W 081°08'0 0.0
2018-Jun-15 15:30N 32°07' W 081°08'0 0.0
2018-Jun-15 15:00N 32°07' W 081°08'0 0.0
2018-Jun-15 14:30N 32°07' W 081°08'0 0.0
2018-Jun-15 14:00N 32°07' W 081°08'0 0.0
2018-Jun-15 13:30N 32°07' W 081°08'0 0.0
2018-Jun-15 13:00N 32°07' W 081°08'0 0.0
2018-Jun-15 12:30N 32°07' W 081°08'0 0.0
2018-Jun-15 12:00N 32°07' W 081°08'0 0.0
2018-Jun-15 11:30N 32°07' W 081°08'0 0.0
2018-Jun-15 11:00N 32°07' W 081°08'0 0.0
2018-Jun-15 10:30N 32°07' W 081°08'0 0.0
2018-Jun-15 10:00N 32°07' W 081°08'0 0.0
2018-Jun-15 09:31N 32°07' W 081°08'0 0.0
2018-Jun-15 09:01N 32°07' W 081°08'0 0.0
2018-Jun-15 08:30N 32°07' W 081°08'0 0.0
2018-Jun-15 08:01N 32°07' W 081°08'0 0.0
2018-Jun-15 07:26N 32°07' W 081°08'0 0.0
2018-Jun-15 07:00N 32°07' W 081°08'0 0.0
2018-Jun-15 06:28N 32°07' W 081°08'0 0.0
2018-Jun-15 06:00N 32°07' W 081°08'0 0.0
2018-Jun-15 05:30N 32°07' W 081°08'0 0.0
2018-Jun-15 05:00N 32°07' W 081°08'0 0.0
2018-Jun-15 04:29N 32°07' W 081°08'0 0.0
2018-Jun-15 03:59N 32°07' W 081°08'0 0.0
2018-Jun-15 03:30N 32°07' W 081°08'0 0.0
2018-Jun-15 03:00N 32°07' W 081°08'0 0.0
2018-Jun-15 02:29N 32°07' W 081°08'0 0.0
2018-Jun-15 02:00N 32°07' W 081°08'0 0.0
2018-Jun-15 01:30N 32°07' W 081°08'0 0.0
2018-Jun-15 01:00N 32°07' W 081°08'0 0.0
2018-Jun-15 00:30N 32°07' W 081°08'0 0.0
2018-Jun-15 00:00N 32°07' W 081°08'0 0.0
2018-Jun-14 23:30N 32°07' W 081°08'0 0.0
2018-Jun-14 23:00N 32°07' W 081°08'0 0.0
2018-Jun-14 22:30N 32°07' W 081°08'0 0.0
2018-Jun-14 22:00N 32°07' W 081°08'0 0.0
2018-Jun-14 21:28N 32°07' W 081°08'0 0.0
2018-Jun-14 21:00N 32°07' W 081°08'0 0.0
2018-Jun-14 20:30N 32°07' W 081°08'0 0.0
2018-Jun-14 20:00N 32°07' W 081°08'0 0.0
2018-Jun-14 19:29N 32°07' W 081°08'0 0.0
2018-Jun-14 19:00N 32°07' W 081°08'0 0.0
2018-Jun-14 18:30N 32°07' W 081°08'0 0.0
2018-Jun-14 18:00N 32°07' W 081°08'0 0.0
2018-Jun-14 17:30N 32°07' W 081°08'0 0.0
2018-Jun-14 17:00N 32°07' W 081°08'0 0.0
2018-Jun-14 16:30N 32°07' W 081°08'0 0.0
2018-Jun-14 16:00N 32°07' W 081°08'0 0.0
2018-Jun-14 15:31N 32°07' W 081°08'0 0.0
2018-Jun-14 15:00N 32°07' W 081°08'0 0.0
2018-Jun-14 14:31N 32°07' W 081°08'0 0.0
2018-Jun-14 14:01N 32°07' W 081°08'0 0.0
2018-Jun-14 13:30N 32°07' W 081°08'0 0.0
2018-Jun-14 13:00N 32°07' W 081°08'0 0.0
2018-Jun-14 12:31N 32°07' W 081°08'0 0.0
2018-Jun-14 12:01N 32°07' W 081°08'0 0.0
2018-Jun-14 11:31N 32°07' W 081°08'0 0.0
2018-Jun-14 11:00N 32°07' W 081°08'0 0.0
2018-Jun-14 10:30N 32°07' W 081°08'0 0.0
2018-Jun-14 10:00N 32°07' W 081°08'0 0.0
2018-Jun-14 09:31N 32°07' W 081°08'0 0.0
2018-Jun-14 09:00N 32°07' W 081°08'0 0.0
2018-Jun-14 08:31N 32°07' W 081°08'0 0.0
2018-Jun-14 08:01N 32°07' W 081°08'0 0.0
2018-Jun-14 07:30N 32°07' W 081°08'0 0.0
2018-Jun-14 07:00N 32°07' W 081°08'0 0.0
2018-Jun-14 06:30N 32°07' W 081°08'0 0.0
2018-Jun-14 05:58N 32°07' W 081°08'0 0.0
2018-Jun-14 05:30N 32°07' W 081°08'0 0.0
2018-Jun-14 05:00N 32°07' W 081°08'0 0.0
2018-Jun-14 04:30N 32°07' W 081°08'0 0.0
2018-Jun-14 04:01N 32°07' W 081°08'0 0.0
2018-Jun-14 03:30N 32°07' W 081°08'0 0.0
2018-Jun-14 03:01N 32°07' W 081°08'0 0.0
2018-Jun-14 02:31N 32°07' W 081°08'0 0.0
2018-Jun-14 02:01N 32°07' W 081°08'0 0.0
2018-Jun-14 01:31N 32°07' W 081°08'0 0.0
2018-Jun-14 01:00N 32°07' W 081°08'0 0.0
2018-Jun-14 00:30N 32°07' W 081°08'0 0.0
2018-Jun-14 00:00N 32°07' W 081°08'0 0.0
2018-Jun-13 23:30N 32°07' W 081°08'0 0.0
2018-Jun-13 23:00N 32°07' W 081°08'0 0.0
2018-Jun-13 22:31N 32°07' W 081°08'0 0.0
2018-Jun-13 22:00N 32°07' W 081°08'0 0.0
2018-Jun-13 21:31N 32°07' W 081°08'0 0.0
2018-Jun-13 21:00N 32°07' W 081°08'0 0.0
2018-Jun-13 19:26N 32°07' W 081°08'0 0.0
2018-Jun-13 19:01N 32°07' W 081°08'0 0.0
2018-Jun-13 18:30N 32°07' W 081°08'0 0.0
2018-Jun-13 18:01N 32°07' W 081°08'0 0.0
2018-Jun-13 17:30N 32°07' W 081°08'0 0.0
2018-Jun-13 17:00N 32°07' W 081°08'0 0.0
2018-Jun-13 16:30N 32°07' W 081°08'0 0.0
2018-Jun-13 16:01N 32°07' W 081°08'0 0.0
2018-Jun-13 15:30N 32°07' W 081°08'0 0.0
2018-Jun-13 15:00N 32°07' W 081°08'0 0.7
2018-Jun-13 14:30N 32°07' W 081°07'0 0.0
2018-Jun-13 14:00N 32°07' W 081°07'0 0.0
2018-Jun-13 13:30N 32°07' W 081°07'1 1.2
2018-Jun-13 13:00N 32°07' W 081°08'1 1.7
2018-Jun-13 12:30N 32°08' W 081°08'0 0.0
2018-Jun-13 12:00N 32°08' W 081°08'0 0.0
2018-Jun-13 11:30N 32°08' W 081°08'0 0.0
2018-Jun-13 11:00N 32°08' W 081°08'0 0.0
2018-Jun-13 10:30N 32°08' W 081°08'0 0.0
2018-Jun-13 10:00N 32°08' W 081°08'0 0.0
2018-Jun-13 09:30N 32°08' W 081°08'0 0.0
2018-Jun-13 09:00N 32°08' W 081°08'0 0.0
2018-Jun-13 08:30N 32°08' W 081°08'0 0.0
2018-Jun-13 08:00N 32°08' W 081°08'0 0.0
2018-Jun-13 07:30N 32°08' W 081°08'0 0.0
2018-Jun-13 07:00N 32°08' W 081°08'0 0.0
2018-Jun-13 06:30N 32°08' W 081°08'0 0.0
2018-Jun-13 06:00N 32°08' W 081°08'0 0.0
2018-Jun-13 05:30N 32°08' W 081°08'0 0.0
2018-Jun-13 05:00N 32°08' W 081°08'0 0.0
2018-Jun-13 04:30N 32°08' W 081°08'0 0.0
2018-Jun-13 04:00N 32°08' W 081°08'0 0.0
2018-Jun-13 03:30N 32°08' W 081°08'0 0.0
2018-Jun-13 03:00N 32°08' W 081°08'0 0.6
2018-Jun-13 02:30N 32°08' W 081°08'1 2.3
2018-Jun-13 02:00N 32°07' W 081°07'0 0.0
2018-Jun-13 01:30N 32°07' W 081°07'0 0.0
2018-Jun-13 01:00N 32°07' W 081°07'0 0.0
2018-Jun-13 00:30N 32°07' W 081°07'0 0.0
2018-Jun-13 00:00N 32°07' W 081°07'0 0.0
2018-Jun-12 23:30N 32°07' W 081°07'0 0.0
2018-Jun-12 23:00N 32°07' W 081°07'0 0.0
2018-Jun-12 22:30N 32°07' W 081°07'0 0.0
2018-Jun-12 22:00N 32°07' W 081°07'0 0.7
2018-Jun-12 21:30N 32°07' W 081°08'0 0.7
2018-Jun-12 21:00N 32°07' W 081°07'0 0.0
2018-Jun-12 20:30N 32°07' W 081°07'0 0.0
2018-Jun-12 20:00N 32°07' W 081°07'0 0.0
2018-Jun-12 19:30N 32°07' W 081°07'0 0.0
2018-Jun-12 19:00N 32°07' W 081°07'0 0.0
2018-Jun-12 18:30N 32°07' W 081°07'0 0.0
2018-Jun-12 18:00N 32°07' W 081°07'0 0.0
2018-Jun-12 17:30N 32°07' W 081°07'0 0.0
2018-Jun-12 17:00N 32°07' W 081°07'0 0.0
2018-Jun-12 16:30N 32°07' W 081°07'0 0.0
2018-Jun-12 16:00N 32°07' W 081°07'0 0.0
2018-Jun-12 15:30N 32°07' W 081°07'0 0.0
2018-Jun-12 15:00N 32°07' W 081°07'0 0.0
2018-Jun-12 14:30N 32°07' W 081°07'0 0.0
2018-Jun-12 14:00N 32°07' W 081°07'0 0.0
2018-Jun-12 13:30N 32°07' W 081°07'0 0.0
2018-Jun-12 13:00N 32°07' W 081°07'0 0.0
2018-Jun-12 12:30N 32°07' W 081°07'0 0.0
2018-Jun-12 12:00N 32°07' W 081°07'0 0.0
2018-Jun-12 11:30N 32°07' W 081°07'0 0.0
2018-Jun-12 11:00N 32°07' W 081°07'0 1.0
2018-Jun-12 10:30N 32°07' W 081°08'0 0.1
2018-Jun-12 10:00N 32°07' W 081°08'0 0.0
2018-Jun-12 09:29N 32°07' W 081°08'0 0.0
2018-Jun-12 09:00N 32°07' W 081°08'0 0.0
2018-Jun-12 08:30N 32°07' W 081°08'0 0.0
2018-Jun-12 07:59N 32°07' W 081°08'0 0.0
2018-Jun-12 07:30N 32°07' W 081°08'0 0.0
2018-Jun-12 07:00N 32°07' W 081°08'0 0.0
2018-Jun-12 06:30N 32°07' W 081°08'0 0.0
2018-Jun-12 05:58N 32°07' W 081°08'0 0.0
2018-Jun-12 05:30N 32°07' W 081°08'0 0.0
2018-Jun-12 05:00N 32°07' W 081°08'0 0.0
2018-Jun-12 04:30N 32°07' W 081°08'0 0.0
2018-Jun-12 04:00N 32°07' W 081°08'0 0.0
2018-Jun-12 03:30N 32°07' W 081°08'0 0.9
2018-Jun-12 03:00N 32°07' W 081°08'0 0.2
2018-Jun-12 02:30N 32°07' W 081°07'0 0.0
2018-Jun-12 02:00N 32°07' W 081°07'0 0.0
2018-Jun-12 01:30N 32°07' W 081°07'0 0.0
2018-Jun-12 01:00N 32°07' W 081°07'0 0.0
2018-Jun-12 00:30N 32°07' W 081°07'0 0.0
2018-Jun-12 00:00N 32°07' W 081°07'0 0.0
2018-Jun-11 23:30N 32°07' W 081°07'  

Dump ship's entire track history